Time;durP1;ratioP1;P1;durP2;ratioP2;P2;SDS_P1;SDS_P2;PMS_P1;PMS_P2;Temp;Humidity;BMP_temperature;BMP_pressure;BME280_temperature;BME280_humidity;BME280_pressure;Samples;Min_cycle;Max_cycle;Signal;HPM_P1;HPM_P2
2022/03/21 00:00:33;;;;;;;10.07;7.68;;;13.80;48.60;;;;;;5121579;28;20089;-66
2022/03/21 00:02:59;;;;;;;10.50;7.75;;;13.80;47.90;;;;;;5121762;28;20023;-66
2022/03/21 00:05:25;;;;;;;9.60;7.82;;;13.80;48.00;;;;;;5121444;28;20283;-66
2022/03/21 00:07:51;;;;;;;11.02;8.68;;;13.80;48.00;;;;;;5121382;28;20028;-67
2022/03/21 00:10:17;;;;;;;10.23;7.97;;;13.80;48.00;;;;;;5121407;28;20015;-66
2022/03/21 00:12:43;;;;;;;11.05;8.15;;;13.80;48.00;;;;;;5121269;28;20085;-67
2022/03/21 00:15:10;;;;;;;10.25;7.40;;;13.80;48.00;;;;;;5121308;28;20027;-66
2022/03/21 00:17:40;;;;;;;10.30;8.27;;;13.80;48.00;;;;;;5121352;28;20018;-66
2022/03/21 00:20:11;;;;;;;9.38;7.50;;;13.80;48.00;;;;;;5121195;28;20292;-66
2022/03/21 00:22:38;;;;;;;9.85;7.18;;;13.80;48.00;;;;;;5121186;28;20023;-67
2022/03/21 00:25:06;;;;;;;10.82;8.23;;;13.80;48.00;;;;;;5121152;28;20396;-67
2022/03/21 00:27:35;;;;;;;10.07;7.95;;;13.80;48.00;;;;;;5121261;28;20016;-67
2022/03/21 00:30:03;;;;;;;10.23;7.85;;;13.80;48.00;;;;;;5121027;28;20011;-66
2022/03/21 00:32:29;;;;;;;11.38;8.00;;;13.80;48.00;;;;;;5120907;28;20025;-65
2022/03/21 00:34:55;;;;;;;8.68;7.68;;;13.80;48.00;;;;;;5120858;28;20070;-66
2022/03/21 00:37:23;;;;;;;11.27;8.05;;;13.80;48.00;;;;;;5120838;28;20349;-66
2022/03/21 00:39:50;;;;;;;8.40;7.07;;;13.70;48.00;;;;;;5121123;28;20331;-65
2022/03/21 00:42:16;;;;;;;8.32;6.72;;;13.70;47.90;;;;;;5120790;28;20012;-66
2022/03/21 00:44:42;;;;;;;8.63;7.35;;;13.70;48.00;;;;;;5120764;27;20020;-66
2022/03/21 00:47:08;;;;;;;10.73;7.63;;;13.70;47.90;;;;;;5120584;28;20062;-66
2022/03/21 00:49:33;;;;;;;9.98;7.55;;;13.70;47.90;;;;;;5120539;28;20028;-66
2022/03/21 00:51:59;;;;;;;9.60;7.65;;;13.70;47.90;;;;;;5120641;28;20038;-67
2022/03/21 00:54:25;;;;;;;9.02;6.97;;;13.70;47.90;;;;;;5120626;28;20075;-66
2022/03/21 00:56:51;;;;;;;9.45;7.53;;;13.70;48.00;;;;;;5119795;28;20207;-67
2022/03/21 00:59:17;;;;;;;9.07;7.55;;;13.70;48.00;;;;;;5120454;28;20026;-67
2022/03/21 01:01:42;;;;;;;10.45;8.05;;;13.80;48.00;;;;;;5120341;28;20019;-67
2022/03/21 01:04:09;;;;;;;9.65;7.32;;;13.70;48.00;;;;;;5120465;28;20049;-65
2022/03/21 01:06:35;;;;;;;10.75;7.85;;;13.70;48.00;;;;;;5120316;28;20027;-66
2022/03/21 01:09:02;;;;;;;10.10;7.53;;;13.70;48.00;;;;;;5120230;28;20020;-68
2022/03/21 01:11:27;;;;;;;9.93;7.25;;;13.70;48.00;;;;;;5120288;28;20140;-67
2022/03/21 01:13:53;;;;;;;9.18;7.15;;;13.70;48.00;;;;;;5120281;28;20351;-66
2022/03/21 01:16:19;;;;;;;10.57;7.85;;;13.70;48.00;;;;;;5120166;28;20588;-66
2022/03/21 01:18:45;;;;;;;9.02;7.10;;;13.70;48.00;;;;;;5120095;28;20228;-67
2022/03/21 01:21:12;;;;;;;8.65;6.70;;;13.70;48.00;;;;;;5120155;28;20027;-66
2022/03/21 01:23:39;;;;;;;10.23;8.00;;;13.60;48.00;;;;;;5120170;28;20015;-67
2022/03/21 01:26:05;;;;;;;10.95;8.00;;;13.70;48.00;;;;;;5120027;28;20036;-67
2022/03/21 01:28:30;;;;;;;10.00;7.43;;;13.70;48.10;;;;;;5118635;28;20328;-65
2022/03/21 01:30:56;;;;;;;11.15;7.82;;;13.70;48.00;;;;;;5119967;28;20079;-66
2022/03/21 01:33:22;;;;;;;9.63;7.15;;;13.60;47.90;;;;;;5120027;28;20312;-68
2022/03/21 01:35:48;;;;;;;9.45;7.53;;;13.60;48.00;;;;;;5120002;28;20485;-65
2022/03/21 01:38:14;;;;;;;11.15;8.23;;;13.60;47.90;;;;;;5119830;28;20086;-66
2022/03/21 01:40:39;;;;;;;10.40;8.00;;;13.60;47.90;;;;;;5119965;28;20031;-66
2022/03/21 01:43:12;;;;;;;10.85;7.97;;;13.60;48.10;;;;;;5119964;28;20086;-66
2022/03/21 01:45:39;;;;;;;9.35;7.53;;;13.60;48.00;;;;;;5119949;28;20096;-66
2022/03/21 01:48:05;;;;;;;9.68;7.10;;;13.60;48.00;;;;;;5119836;28;20303;-67
2022/03/21 01:50:31;;;;;;;9.43;7.50;;;13.60;48.00;;;;;;5119788;28;20026;-67
2022/03/21 01:55:43;;;;;;;9.93;7.30;;;13.60;48.00;;;;;;5119829;28;20019;-68
2022/03/21 01:58:10;;;;;;;9.20;7.13;;;13.60;48.00;;;;;;5119904;28;20051;-66
2022/03/21 02:00:36;;;;;;;10.45;7.60;;;13.60;48.10;;;;;;5119815;28;20019;-66
2022/03/21 02:03:02;;;;;;;9.27;7.03;;;13.60;48.00;;;;;;5119760;28;20121;-67
2022/03/21 02:05:28;;;;;;;9.68;7.68;;;13.60;48.10;;;;;;5119722;28;20019;-68
2022/03/21 02:07:54;;;;;;;12.10;7.97;;;13.50;48.10;;;;;;5122575;28;20037;-65
2022/03/21 02:10:19;;;;;;;10.00;7.80;;;13.50;48.00;;;;;;5123861;27;20023;-67
2022/03/21 02:12:45;;;;;;;9.77;7.53;;;13.60;48.00;;;;;;5123802;28;20020;-66
2022/03/21 02:15:11;;;;;;;10.57;8.05;;;13.60;48.00;;;;;;5123775;28;20079;-67
2022/03/21 02:17:41;;;;;;;9.88;7.18;;;13.50;48.00;;;;;;5123751;28;20035;-67
2022/03/21 02:20:07;;;;;;;9.88;7.72;;;13.50;48.00;;;;;;5123685;27;20015;-66
2022/03/21 02:22:45;;;;;;;9.25;6.80;;;13.50;48.00;;;;;;5123586;28;20214;-68
2022/03/21 02:25:23;;;;;;;9.50;7.35;;;13.50;48.00;;;;;;5123536;28;20076;-67
2022/03/21 02:27:50;;;;;;;8.75;6.82;;;13.50;48.00;;;;;;5123469;28;20244;-67
2022/03/21 02:30:16;;;;;;;9.40;7.13;;;13.50;48.00;;;;;;5123531;28;20022;-67
2022/03/21 02:32:42;;;;;;;10.35;7.28;;;13.50;48.60;;;;;;5123463;27;20042;-67
2022/03/21 02:35:09;;;;;;;8.98;7.40;;;13.50;48.00;;;;;;5123426;28;20343;-66
2022/03/21 02:37:36;;;;;;;10.18;7.22;;;13.50;48.00;;;;;;5123281;28;20090;-66
2022/03/21 02:40:02;;;;;;;9.90;7.25;;;13.50;48.00;;;;;;5123315;27;20251;-67
2022/03/21 02:42:28;;;;;;;9.18;7.43;;;13.50;48.10;;;;;;5123229;28;20052;-67
2022/03/21 02:44:54;;;;;;;9.15;7.90;;;13.50;48.00;;;;;;5123145;28;20034;-67
2022/03/21 02:47:20;;;;;;;10.15;7.70;;;13.40;48.00;;;;;;5122906;28;20265;-67
2022/03/21 02:49:45;;;;;;;10.63;7.80;;;13.40;48.00;;;;;;5123136;28;20031;-67
2022/03/21 02:52:14;;;;;;;9.48;7.25;;;13.50;48.10;;;;;;5123039;28;20038;-66
2022/03/21 02:54:41;;;;;;;11.27;8.00;;;13.50;48.00;;;;;;5122904;28;20040;-66
2022/03/21 02:57:07;;;;;;;8.85;7.18;;;13.40;48.00;;;;;;5122914;28;20015;-67
2022/03/21 02:59:32;;;;;;;8.65;6.85;;;13.50;48.10;;;;;;5122940;28;20359;-67
2022/03/21 03:01:59;;;;;;;9.43;7.03;;;13.40;48.10;;;;;;5122837;28;20062;-66
2022/03/21 03:04:26;;;;;;;9.63;7.65;;;13.40;48.00;;;;;;5122755;28;20065;-67
2022/03/21 03:06:52;;;;;;;8.65;7.25;;;13.40;48.20;;;;;;5122435;28;20043;-67
2022/03/21 03:09:19;;;;;;;9.82;7.43;;;13.40;48.00;;;;;;5122609;28;20221;-66
2022/03/21 03:11:44;;;;;;;9.55;7.45;;;13.40;48.10;;;;;;5122751;28;20023;-67
2022/03/21 03:14:10;;;;;;;9.57;7.68;;;13.40;48.00;;;;;;5122556;28;20034;-66
2022/03/21 03:16:36;;;;;;;8.80;6.68;;;13.40;48.10;;;;;;5122635;28;20087;-67
2022/03/21 03:19:02;;;;;;;9.02;7.07;;;13.40;48.10;;;;;;5121872;28;20295;-67
2022/03/21 03:21:33;;;;;;;11.27;7.85;;;13.40;48.10;;;;;;5122499;28;20086;-66
2022/03/21 03:24:01;;;;;;;10.25;7.65;;;13.40;48.10;;;;;;5122505;28;20042;-67
2022/03/21 03:26:27;;;;;;;9.25;7.10;;;13.40;48.00;;;;;;5122446;28;20023;-68
2022/03/21 03:28:53;;;;;;;10.35;7.65;;;13.40;48.10;;;;;;5122262;28;20015;-68
2022/03/21 03:31:19;;;;;;;9.52;7.78;;;13.40;48.10;;;;;;5122328;28;20069;-67
2022/03/21 03:33:46;;;;;;;9.88;7.97;;;13.40;48.10;;;;;;5122362;28;20079;-67
2022/03/21 03:36:15;;;;;;;9.48;7.13;;;13.30;48.10;;;;;;5122231;28;20056;-67
2022/03/21 03:38:45;;;;;;;8.20;6.35;;;13.30;48.10;;;;;;5122207;28;20326;-67
2022/03/21 03:41:11;;;;;;;9.75;6.90;;;13.40;48.20;;;;;;5122142;28;20219;-67
2022/03/21 03:43:38;;;;;;;8.73;6.82;;;13.30;48.10;;;;;;5122123;28;20189;-67
2022/03/21 03:46:03;;;;;;;9.93;7.45;;;13.40;48.10;;;;;;5121851;28;20116;-66
2022/03/21 03:48:29;;;;;;;10.02;7.30;;;13.30;48.10;;;;;;5121967;28;20047;-67
2022/03/21 03:50:56;;;;;;;9.57;7.47;;;13.30;48.00;;;;;;5121983;28;20032;-68
2022/03/21 03:53:22;;;;;;;10.30;7.53;;;13.30;48.20;;;;;;5121993;28;20087;-67
2022/03/21 03:55:48;;;;;;;8.98;7.32;;;13.30;48.10;;;;;;5121876;27;20247;-65
2022/03/21 03:58:14;;;;;;;8.80;7.30;;;13.30;48.10;;;;;;5121778;28;20134;-67
2022/03/21 04:00:40;;;;;;;8.15;6.88;;;13.30;48.10;;;;;;5121729;28;20031;-66
2022/03/21 04:05:50;;;;;;;11.45;7.13;;;13.30;48.10;;;;;;5121714;28;20250;-66
2022/03/21 04:08:19;;;;;;;9.05;7.20;;;13.30;48.10;;;;;;5121503;28;20027;-66
2022/03/21 04:10:44;;;;;;;8.57;6.97;;;13.20;48.10;;;;;;5120310;28;20327;-67
2022/03/21 04:13:10;;;;;;;10.60;6.90;;;13.30;48.30;;;;;;5121502;28;20023;-66
2022/03/21 04:15:36;;;;;;;9.23;7.45;;;13.20;48.10;;;;;;5121491;28;20011;-66
2022/03/21 04:18:04;;;;;;;9.27;7.63;;;13.20;48.10;;;;;;5121440;28;20083;-67
2022/03/21 04:20:31;;;;;;;8.80;7.30;;;13.20;48.10;;;;;;5121417;28;20036;-66
2022/03/21 04:23:00;;;;;;;9.77;7.07;;;13.20;48.10;;;;;;5121289;28;20223;-67
2022/03/21 04:25:26;;;;;;;9.23;7.03;;;13.20;48.10;;;;;;5121319;28;20015;-67
2022/03/21 04:27:52;;;;;;;9.35;7.32;;;13.20;48.10;;;;;;5121181;28;20039;-66
2022/03/21 04:30:18;;;;;;;10.27;7.40;;;13.20;48.10;;;;;;5120160;28;20019;-69
2022/03/21 04:32:44;;;;;;;8.90;7.57;;;13.20;48.10;;;;;;5121140;28;20034;-67
2022/03/21 04:35:11;;;;;;;11.40;7.78;;;13.20;48.10;;;;;;5121120;28;20596;-66
2022/03/21 04:37:37;;;;;;;10.25;8.18;;;13.20;48.20;;;;;;5121060;28;20012;-67
2022/03/21 04:40:05;;;;;;;8.80;7.13;;;13.20;48.20;;;;;;5121024;28;20019;-69
2022/03/21 04:42:30;;;;;;;11.25;7.90;;;13.20;48.20;;;;;;5119625;28;20020;-68
2022/03/21 04:44:56;;;;;;;8.63;6.97;;;13.20;48.20;;;;;;5120918;28;20019;-67
2022/03/21 04:47:24;;;;;;;8.05;6.85;;;13.20;48.20;;;;;;5120625;28;20066;-66
2022/03/21 04:49:50;;;;;;;8.27;7.20;;;13.20;48.20;;;;;;5120890;27;20031;-66
2022/03/21 04:52:16;;;;;;;10.18;7.93;;;13.20;48.20;;;;;;5120795;28;20236;-68
2022/03/21 04:54:42;;;;;;;9.77;7.18;;;13.20;48.10;;;;;;5120729;28;20279;-68
2022/03/21 04:57:08;;;;;;;11.52;7.10;;;13.20;48.20;;;;;;5120735;28;20015;-68
2022/03/21 04:59:34;;;;;;;10.68;7.22;;;13.20;48.10;;;;;;5120600;28;20114;-66
2022/03/21 05:02:00;;;;;;;9.75;7.20;;;13.20;48.20;;;;;;5120596;28;20028;-67
2022/03/21 05:04:26;;;;;;;8.73;6.80;;;13.20;48.20;;;;;;5120584;28;20016;-67
2022/03/21 05:06:54;;;;;;;10.48;7.72;;;13.10;48.20;;;;;;5120528;28;20015;-69
2022/03/21 05:09:20;;;;;;;9.27;7.18;;;13.10;48.20;;;;;;5120366;28;20024;-67
2022/03/21 05:11:46;;;;;;;9.48;7.38;;;13.10;48.10;;;;;;5120493;28;20016;-66
2022/03/21 05:14:12;;;;;;;10.32;7.82;;;13.20;48.00;;;;;;5120382;28;20350;-67
2022/03/21 05:16:38;;;;;;;9.02;7.18;;;13.20;48.20;;;;;;5120399;28;20011;-67
2022/03/21 05:19:04;;;;;;;9.20;7.35;;;13.20;48.10;;;;;;5120333;28;20020;-66
2022/03/21 05:21:30;;;;;;;10.63;7.28;;;13.10;48.10;;;;;;5120299;28;20027;-66
2022/03/21 05:32:25;;;;;;;10.38;7.60;;;13.10;48.00;;;;;;5114903;27;20106;-66
2022/03/21 05:37:35;;;;;;;9.45;7.22;;;13.10;48.10;;;;;;5120103;28;20073;-67
2022/03/21 05:42:45;;;;;;;9.45;7.18;;;13.20;48.10;;;;;;5119941;28;20065;-66
2022/03/21 05:45:13;;;;;;;9.85;7.32;;;13.10;48.10;;;;;;5119940;28;20019;-67
2022/03/21 05:48:50;;;;;;;9.98;6.90;;;13.10;48.10;;;;;;5118373;28;20275;-66
2022/03/21 05:50:24;;;;;;;9.70;7.25;;;13.10;48.10;;;;;;5119825;28;20051;-67
2022/03/21 05:52:49;;;;;;;8.77;6.95;;;13.20;48.10;;;;;;5119945;28;20111;-66
2022/03/21 05:55:15;;;;;;;9.02;6.80;;;13.10;48.00;;;;;;5118586;28;20023;-67
2022/03/21 05:57:41;;;;;;;8.80;6.88;;;13.10;48.00;;;;;;5119850;28;20027;-66
2022/03/21 06:00:22;;;;;;;9.70;7.70;;;13.10;48.10;;;;;;5119855;28;20015;-66
2022/03/21 06:02:50;;;;;;;7.97;7.13;;;13.10;48.00;;;;;;5119907;28;20478;-66
2022/03/21 06:05:15;;;;;;;10.40;7.68;;;13.10;48.00;;;;;;5119847;28;20050;-67
2022/03/21 06:07:41;;;;;;;8.98;7.28;;;13.10;48.00;;;;;;5119671;28;20016;-67
2022/03/21 06:10:07;;;;;;;9.77;7.15;;;13.20;48.10;;;;;;5119808;28;20039;-66
2022/03/21 06:12:33;;;;;;;10.05;7.90;;;13.10;48.00;;;;;;5119823;28;20023;-66
2022/03/21 06:14:59;;;;;;;9.00;6.85;;;13.10;48.00;;;;;;5119729;28;20090;-67
2022/03/21 06:17:25;;;;;;;10.23;7.35;;;13.10;48.00;;;;;;5119667;28;20023;-66
2022/03/21 06:19:51;;;;;;;9.23;7.22;;;13.10;48.00;;;;;;5119601;28;20024;-66
2022/03/21 06:22:17;;;;;;;9.30;7.57;;;13.20;48.00;;;;;;5119596;28;20082;-65
2022/03/21 06:24:43;;;;;;;9.52;7.30;;;13.20;48.00;;;;;;5119624;28;20026;-66
2022/03/21 06:27:09;;;;;;;9.18;7.05;;;13.20;48.00;;;;;;5119888;28;20095;-66
2022/03/21 06:29:35;;;;;;;9.20;7.00;;;13.20;48.00;;;;;;5119457;28;20028;-67
2022/03/21 06:32:00;;;;;;;10.30;7.85;;;13.20;48.00;;;;;;5119530;28;20075;-66
2022/03/21 06:34:26;;;;;;;9.50;6.95;;;13.20;48.00;;;;;;5119545;28;20083;-67
2022/03/21 06:36:55;;;;;;;10.77;7.45;;;13.20;47.90;;;;;;5119427;28;20023;-67
2022/03/21 06:39:21;;;;;;;8.68;6.88;;;13.20;47.90;;;;;;5119420;28;20439;-66
2022/03/21 06:41:46;;;;;;;10.18;7.28;;;13.20;47.90;;;;;;5119315;28;20023;-67
2022/03/21 06:44:14;;;;;;;10.75;7.68;;;13.20;47.90;;;;;;5119322;28;20020;-67
2022/03/21 06:46:39;;;;;;;10.73;7.70;;;13.30;47.90;;;;;;5119359;28;20416;-67
2022/03/21 06:49:05;;;;;;;8.23;7.28;;;13.20;47.80;;;;;;5119218;28;20099;-67
2022/03/21 06:51:31;;;;;;;10.05;7.03;;;13.20;47.80;;;;;;5119337;28;20019;-66
2022/03/21 06:53:56;;;;;;;8.93;7.03;;;13.30;47.70;;;;;;5120469;28;20388;-67
2022/03/21 06:56:22;;;;;;;9.75;7.00;;;13.30;47.80;;;;;;5122874;28;20054;-66
2022/03/21 06:58:48;;;;;;;9.60;7.15;;;13.30;48.30;;;;;;5122881;28;20023;-66
2022/03/21 07:01:14;;;;;;;9.57;7.25;;;13.30;47.60;;;;;;5122827;28;20036;-65
2022/03/21 07:03:39;;;;;;;9.63;6.97;;;13.40;47.70;;;;;;5122779;28;20335;-67
2022/03/21 07:06:05;;;;;;;9.70;6.72;;;13.40;47.60;;;;;;5122809;28;20372;-66
2022/03/21 07:08:31;;;;;;;8.88;7.13;;;13.40;47.50;;;;;;5122634;28;20030;-67
2022/03/21 07:10:57;;;;;;;11.05;7.40;;;13.40;47.60;;;;;;5122695;28;20015;-66
2022/03/21 07:13:22;;;;;;;10.43;7.25;;;13.40;47.50;;;;;;5122599;28;20061;-67
2022/03/21 07:15:48;;;;;;;9.90;7.93;;;13.40;47.50;;;;;;5122622;28;20028;-66
2022/03/21 07:18:14;;;;;;;9.98;7.28;;;13.40;47.50;;;;;;5123190;28;20109;-67
2022/03/21 07:20:43;;;;;;;10.07;7.05;;;13.40;47.50;;;;;;5122515;28;20027;-66
2022/03/21 07:23:09;;;;;;;;;;;13.40;47.50;;;;;;5122981;28;20035;-66
2022/03/21 07:25:34;;;;;;;9.50;6.60;;;13.40;47.50;;;;;;5122440;28;20170;-66
2022/03/21 07:28:00;;;;;;;9.63;7.25;;;13.40;47.70;;;;;;5122349;28;20121;-67
2022/03/21 07:30:26;;;;;;;8.93;7.07;;;13.40;47.70;;;;;;5121009;28;20015;-67
2022/03/21 07:32:52;;;;;;;8.00;6.57;;;13.40;47.60;;;;;;5122309;28;20020;-68
2022/03/21 07:35:18;;;;;;;8.57;7.07;;;13.40;47.50;;;;;;5122269;28;20080;-67
2022/03/21 07:37:46;;;;;;;10.23;7.38;;;13.50;47.50;;;;;;5120940;28;20050;-67
2022/03/21 07:40:13;;;;;;;8.00;6.90;;;13.50;47.50;;;;;;5122182;28;20015;-66
2022/03/21 07:42:40;;;;;;;8.63;6.60;;;13.50;47.40;;;;;;5122145;28;20089;-66
2022/03/21 07:47:52;;;;;;;8.13;6.40;;;13.60;47.40;;;;;;5121902;28;20066;-67
2022/03/21 07:50:19;;;;;;;9.60;6.90;;;13.60;47.30;;;;;;5122012;28;20016;-67
2022/03/21 07:52:47;;;;;;;10.05;7.38;;;13.60;47.30;;;;;;5121915;28;20019;-66
2022/03/21 07:55:13;;;;;;;10.25;7.50;;;13.60;47.30;;;;;;5121896;28;20079;-67
2022/03/21 07:57:39;;;;;;;9.48;7.55;;;13.70;47.20;;;;;;5121880;27;20325;-66
2022/03/21 08:00:09;;;;;;;8.02;6.65;;;13.70;47.20;;;;;;5122313;28;20031;-66
2022/03/21 08:02:35;;;;;;;8.23;6.80;;;13.70;47.20;;;;;;5121731;28;20019;-66
2022/03/21 08:05:01;;;;;;;9.88;6.80;;;13.70;47.10;;;;;;5121413;28;20602;-66
2022/03/21 08:07:27;;;;;;;8.07;6.70;;;13.70;47.10;;;;;;5121653;28;20066;-66
2022/03/21 08:09:53;;;;;;;10.52;7.32;;;13.70;47.10;;;;;;5121584;27;20064;-66
2022/03/21 08:12:19;;;;;;;9.32;6.80;;;13.70;47.00;;;;;;5121537;28;20224;-66
2022/03/21 08:14:45;;;;;;;11.00;7.57;;;13.80;47.10;;;;;;5121541;28;20051;-67
2022/03/21 08:17:11;;;;;;;8.95;7.43;;;13.80;47.00;;;;;;5121432;28;20035;-66
2022/03/21 08:19:37;;;;;;;9.57;7.25;;;13.80;46.90;;;;;;5120066;28;20022;-66
2022/03/21 08:22:04;;;;;;;8.55;7.10;;;13.80;46.90;;;;;;5121371;28;20021;-66
2022/03/21 08:24:34;;;;;;;11.70;7.55;;;13.90;46.90;;;;;;5121226;28;20028;-66
2022/03/21 08:27:00;;;;;;;9.27;7.32;;;13.80;46.80;;;;;;5121196;28;20224;-66
2022/03/21 08:29:26;;;;;;;9.65;7.40;;;13.90;46.80;;;;;;5121174;28;20015;-68
2022/03/21 08:31:52;;;;;;;10.27;7.30;;;13.90;46.80;;;;;;5121089;28;20071;-68
2022/03/21 08:34:17;;;;;;;8.73;6.88;;;14.00;46.80;;;;;;5121064;28;20035;-68
2022/03/21 08:36:43;;;;;;;7.97;6.25;;;13.90;46.70;;;;;;5121033;28;20027;-67
2022/03/21 08:39:10;;;;;;;8.50;6.90;;;14.00;46.70;;;;;;5121028;28;20028;-67
2022/03/21 08:41:36;;;;;;;8.65;6.75;;;14.00;46.60;;;;;;5120898;28;20023;-67
2022/03/21 08:44:02;;;;;;;8.80;6.60;;;14.10;46.60;;;;;;5120879;28;20121;-68
2022/03/21 08:46:28;;;;;;;9.50;7.20;;;14.00;46.60;;;;;;5120710;28;20063;-67
2022/03/21 08:51:39;;;;;;;9.45;7.55;;;14.10;46.60;;;;;;5120831;28;20226;-66
2022/03/21 08:54:05;;;;;;;8.85;7.10;;;14.10;46.60;;;;;;5120792;28;20047;-66
2022/03/21 08:56:30;;;;;;;9.20;7.53;;;14.10;46.60;;;;;;5120676;28;20220;-66
2022/03/21 08:58:56;;;;;;;9.70;7.03;;;14.10;46.60;;;;;;5120637;28;20050;-66
2022/03/21 09:01:22;;;;;;;8.77;6.82;;;14.20;46.70;;;;;;5120650;28;20385;-66
2022/03/21 09:03:49;;;;;;;8.57;6.57;;;14.20;46.60;;;;;;5120553;28;20032;-66
2022/03/21 09:06:15;;;;;;;8.60;7.28;;;14.10;46.50;;;;;;5120598;28;20049;-67
2022/03/21 09:08:42;;;;;;;8.05;6.40;;;14.20;46.60;;;;;;5120459;28;20335;-67
2022/03/21 09:11:08;;;;;;;10.25;7.70;;;14.20;46.60;;;;;;5120467;28;20011;-65
2022/03/21 09:13:34;;;;;;;7.97;6.30;;;14.20;46.60;;;;;;5120474;28;20092;-66
2022/03/21 09:16:00;;;;;;;9.00;7.22;;;14.20;46.60;;;;;;5119959;28;20087;-65
2022/03/21 09:18:26;;;;;;;9.50;6.97;;;14.20;46.40;;;;;;5120264;28;20025;-67
2022/03/21 09:20:51;;;;;;;9.65;7.07;;;14.20;46.40;;;;;;5120302;28;20023;-67
2022/03/21 09:23:17;;;;;;;9.02;6.80;;;14.20;46.50;;;;;;5120312;28;20020;-67
2022/03/21 09:25:43;;;;;;;9.02;7.13;;;14.30;46.40;;;;;;5120234;28;20403;-66
2022/03/21 09:28:09;;;;;;;7.38;6.57;;;14.30;46.50;;;;;;5120250;28;20210;-65
2022/03/21 09:30:36;;;;;;;10.48;7.72;;;14.30;46.40;;;;;;5120265;28;20027;-66
2022/03/21 09:33:02;;;;;;;8.85;7.07;;;14.30;46.40;;;;;;5118946;28;20290;-69
2022/03/21 09:35:28;;;;;;;8.98;6.80;;;14.30;46.30;;;;;;5120116;28;20020;-67
2022/03/21 09:37:54;;;;;;;8.63;6.90;;;14.30;46.30;;;;;;5120163;28;20031;-66
2022/03/21 09:40:20;;;;;;;8.23;6.93;;;14.40;46.50;;;;;;5120115;28;20338;-66
2022/03/21 09:42:46;;;;;;;8.48;6.57;;;14.40;46.40;;;;;;5120124;28;20046;-67
2022/03/21 09:45:13;;;;;;;8.23;6.65;;;14.40;46.30;;;;;;5120053;28;20242;-66
2022/03/21 09:50:36;;;;;;;9.85;7.55;;;14.40;46.20;;;;;;5119980;28;20064;-67
2022/03/21 09:53:04;;;;;;;9.93;7.10;;;14.40;46.20;;;;;;5119988;28;20050;-66
2022/03/21 09:55:30;;;;;;;8.80;6.78;;;14.50;46.40;;;;;;5119872;28;20381;-65
2022/03/21 09:57:56;;;;;;;9.18;7.28;;;14.50;46.30;;;;;;5118656;28;20106;-66
2022/03/21 10:00:22;;;;;;;8.80;6.05;;;14.50;46.20;;;;;;5118636;28;20030;-67
2022/03/21 10:02:48;;;;;;;7.90;6.30;;;14.50;46.20;;;;;;5119871;28;20337;-67
2022/03/21 10:05:40;;;;;;;9.57;7.05;;;14.50;46.10;;;;;;5119895;28;20140;-66
2022/03/21 10:08:16;;;;;;;9.77;6.72;;;14.50;46.10;;;;;;5119797;28;20030;-66
2022/03/21 10:10:52;;;;;;;8.35;6.40;;;14.60;45.90;;;;;;5119829;28;20298;-67
2022/03/21 10:13:19;;;;;;;8.38;6.35;;;14.60;46.00;;;;;;5119803;28;20018;-67
2022/03/21 10:15:45;;;;;;;9.60;7.32;;;14.60;46.60;;;;;;5119770;28;20020;-68
2022/03/21 10:18:12;;;;;;;9.00;7.20;;;14.60;45.90;;;;;;5119727;28;20092;-66
2022/03/21 10:20:39;;;;;;;8.48;6.88;;;14.70;45.90;;;;;;5119766;28;20117;-67
2022/03/21 10:23:22;;;;;;;8.73;7.03;;;14.70;46.00;;;;;;5119701;28;20034;-66
2022/03/21 10:25:51;;;;;;;9.18;7.53;;;14.70;45.80;;;;;;5119637;28;20050;-66
2022/03/21 10:28:36;;;;;;;8.65;6.68;;;14.70;45.90;;;;;;5121466;28;20019;-67
2022/03/21 10:31:03;;;;;;;8.43;6.85;;;14.80;45.90;;;;;;5124042;28;20056;-67
2022/03/21 10:33:29;;;;;;;10.38;7.63;;;14.80;45.90;;;;;;5127416;28;20087;-66
2022/03/21 10:35:56;;;;;;;9.23;7.90;;;14.80;45.90;;;;;;5123850;28;20212;-66
2022/03/21 10:38:35;;;;;;;9.05;7.28;;;14.80;46.00;;;;;;5123430;28;20086;-66
2022/03/21 10:41:08;;;;;;;9.55;7.32;;;14.80;45.80;;;;;;5123458;28;20031;-66
2022/03/21 10:43:35;;;;;;;10.10;7.47;;;14.80;45.70;;;;;;5123369;28;20031;-65
2022/03/21 10:46:02;;;;;;;7.40;6.35;;;14.80;45.70;;;;;;5123135;28;20051;-67
2022/03/21 10:48:32;;;;;;;8.05;6.55;;;14.90;45.70;;;;;;5123215;28;20023;-68
2022/03/21 10:51:01;;;;;;;8.75;6.90;;;14.90;45.70;;;;;;5123540;28;20020;-66
2022/03/21 10:53:28;;;;;;;;;;;14.90;45.70;;;;;;5122326;28;20046;-67
2022/03/21 10:55:53;;;;;;;8.52;7.25;;;14.90;45.60;;;;;;5123145;28;20181;-66
2022/03/21 10:58:38;;;;;;;10.77;7.40;;;14.90;45.50;;;;;;5123021;28;20038;-67
2022/03/21 11:01:24;;;;;;;8.60;6.75;;;14.90;45.50;;;;;;5122939;27;20089;-66
2022/03/21 11:03:52;;;;;;;9.40;7.18;;;14.90;45.50;;;;;;5123372;27;20051;-67
2022/03/21 11:06:19;;;;;;;9.02;6.90;;;14.90;45.60;;;;;;5122955;28;20019;-67
2022/03/21 11:08:47;;;;;;;9.07;7.25;;;15.00;45.60;;;;;;5122817;28;20103;-66
2022/03/21 11:11:17;;;;;;;9.10;7.07;;;14.90;45.60;;;;;;5122890;28;20513;-67
2022/03/21 11:13:43;;;;;;;9.88;7.07;;;14.90;45.50;;;;;;5122770;28;20026;-67
2022/03/21 11:16:09;;;;;;;8.93;6.78;;;15.00;45.80;;;;;;5122739;28;20032;-65
2022/03/21 11:18:35;;;;;;;10.70;6.38;;;14.90;45.90;;;;;;5122673;28;20023;-66
2022/03/21 11:21:02;;;;;;;9.13;7.03;;;15.00;46.10;;;;;;5122684;28;20027;-67
2022/03/21 11:23:29;;;;;;;8.30;6.65;;;15.00;46.10;;;;;;5122651;28;20027;-66
2022/03/21 11:26:07;;;;;;;8.50;6.43;;;15.00;46.00;;;;;;5122534;28;20174;-67
2022/03/21 11:29:11;;;;;;;9.70;7.05;;;15.00;46.10;;;;;;5121201;28;20031;-66
2022/03/21 11:32:03;;;;;;;8.93;7.07;;;15.00;46.00;;;;;;5122286;28;20075;-67
2022/03/21 11:34:56;;;;;;;10.27;7.18;;;15.00;45.70;;;;;;5098271;28;20036;-66
2022/03/21 11:37:29;;;;;;;8.25;6.45;;;15.00;45.60;;;;;;5122341;28;20049;-67
2022/03/21 11:40:26;;;;;;;9.55;7.07;;;15.00;45.70;;;;;;5120424;28;20314;-67
2022/03/21 11:42:54;;;;;;;8.15;6.53;;;15.00;45.90;;;;;;5122224;28;20061;-66
2022/03/21 11:45:34;;;;;;;9.10;6.82;;;15.00;45.80;;;;;;5122001;28;20031;-66
2022/03/21 11:48:18;;;;;;;9.52;7.60;;;15.10;45.70;;;;;;5122083;27;20079;-65
2022/03/21 11:50:45;;;;;;;9.95;7.38;;;15.10;45.90;;;;;;5122038;28;20027;-66
2022/03/21 11:53:13;;;;;;;9.00;6.97;;;15.10;45.60;;;;;;5121994;28;20264;-66
2022/03/21 11:55:43;;;;;;;9.90;7.45;;;15.10;45.70;;;;;;5121859;28;20024;-67
2022/03/21 11:58:27;;;;;;;9.25;6.85;;;15.10;45.80;;;;;;5121969;28;20050;-66
2022/03/21 12:01:25;;;;;;;8.68;6.43;;;15.10;45.90;;;;;;5121827;28;20015;-67
2022/03/21 12:03:50;;;;;;;7.95;6.70;;;15.10;45.90;;;;;;5121829;28;20095;-67
2022/03/21 12:06:36;;;;;;;8.35;6.68;;;15.20;46.10;;;;;;5121716;28;20056;-66
2022/03/21 12:09:12;;;;;;;7.78;6.43;;;15.10;46.20;;;;;;5121420;28;20035;-66
2022/03/21 12:11:38;;;;;;;9.30;7.07;;;15.20;46.00;;;;;;5121593;28;20087;-67
2022/03/21 12:14:36;;;;;;;9.68;7.35;;;15.10;45.80;;;;;;5121493;28;20019;-65
2022/03/21 12:17:01;;;;;;;8.48;6.30;;;15.20;46.00;;;;;;5121554;28;20015;-66
2022/03/21 12:19:48;;;;;;;8.00;6.18;;;15.20;46.10;;;;;;5121455;28;20015;-66
2022/03/21 12:22:46;;;;;;;7.90;6.45;;;15.20;46.80;;;;;;5121400;28;20027;-66
2022/03/21 12:25:22;;;;;;;8.35;6.50;;;15.20;46.20;;;;;;5121379;28;20035;-68
2022/03/21 12:27:57;;;;;;;6.75;6.03;;;15.20;46.20;;;;;;5121180;28;20069;-68
2022/03/21 12:30:24;;;;;;;9.00;6.90;;;15.20;46.20;;;;;;5121171;28;20023;-68
2022/03/21 12:32:56;;;;;;;7.70;6.10;;;15.30;46.20;;;;;;5121081;28;20077;-67
2022/03/21 12:35:40;;;;;;;7.63;6.22;;;15.30;46.20;;;;;;5121051;28;20015;-68
2022/03/21 12:38:09;;;;;;;10.52;6.82;;;15.30;46.20;;;;;;5121078;28;20023;-66
2022/03/21 12:41:03;;;;;;;8.13;6.22;;;15.30;46.10;;;;;;5119668;28;20254;-67
2022/03/21 12:43:41;;;;;;;6.32;5.63;;;15.30;46.20;;;;;;5120960;28;20055;-66
2022/03/21 12:46:07;;;;;;;7.28;6.00;;;15.30;46.20;;;;;;5120762;28;20058;-66
2022/03/21 12:48:44;;;;;;;9.30;7.40;;;15.30;46.40;;;;;;5120723;28;20019;-66
2022/03/21 12:51:13;;;;;;;7.90;6.22;;;15.30;46.30;;;;;;5119943;28;20057;-66
2022/03/21 12:53:48;;;;;;;7.15;5.88;;;15.30;46.30;;;;;;5120776;28;20024;-66
2022/03/21 12:56:19;;;;;;;7.95;6.68;;;15.40;46.40;;;;;;5120718;28;20023;-67
2022/03/21 12:58:47;;;;;;;7.20;6.20;;;15.40;46.40;;;;;;5121020;28;20028;-67
2022/03/21 13:01:18;;;;;;;7.33;5.97;;;15.40;46.30;;;;;;5120670;28;20016;-66
2022/03/21 13:03:44;;;;;;;8.45;6.55;;;15.40;46.30;;;;;;5120499;28;20246;-65
2022/03/21 13:11:50;;;;;;;7.38;6.13;;;15.50;46.50;;;;;;5100387;28;20208;-66
2022/03/21 13:14:18;;;;;;;8.32;6.63;;;15.40;46.40;;;;;;5120412;28;20019;-67
2022/03/21 13:16:58;;;;;;;7.60;6.32;;;15.50;46.40;;;;;;5120376;28;20024;-66
2022/03/21 13:19:26;;;;;;;7.53;6.13;;;15.50;46.40;;;;;;5120207;28;20023;-66
2022/03/21 13:22:01;;;;;;;8.52;6.13;;;15.50;46.30;;;;;;5120199;28;20020;-66
2022/03/21 13:24:41;;;;;;;8.40;6.57;;;15.50;46.30;;;;;;5120252;28;20019;-66